createdAt,value
2018-03-22T00:01:40.991Z,13.43
2018-03-22T00:04:11.784Z,14.10
2018-03-22T00:06:42.470Z,14.00
2018-03-22T00:09:13.790Z,11.90
2018-03-22T00:11:44.295Z,14.40
2018-03-22T00:14:15.750Z,13.23
2018-03-22T00:16:46.243Z,13.27
2018-03-22T00:19:16.730Z,13.33
2018-03-22T00:21:47.381Z,11.93
2018-03-22T00:24:17.770Z,12.50
2018-03-22T00:26:48.242Z,11.23
2018-03-22T00:29:18.923Z,11.27
2018-03-22T00:31:49.637Z,13.77
2018-03-22T00:34:21.237Z,13.93
2018-03-22T00:36:51.945Z,11.40
2018-03-22T00:39:22.251Z,10.87
2018-03-22T00:41:53.890Z,13.70
2018-03-22T00:44:24.206Z,11.33
2018-03-22T00:46:55.228Z,15.07
2018-03-22T00:49:26.063Z,14.57
2018-03-22T00:51:56.403Z,11.70
2018-03-22T00:54:26.651Z,13.37
2018-03-22T00:56:58.121Z,11.73
2018-03-22T00:59:28.549Z,14.47
2018-03-22T01:01:58.854Z,12.13
2018-03-22T01:04:30.027Z,12.83
2018-03-22T01:07:00.725Z,11.17
2018-03-22T01:09:31.792Z,15.00
2018-03-22T01:12:02.215Z,15.53
2018-03-22T01:14:32.800Z,12.80
2018-03-22T01:17:03.142Z,14.77
2018-03-22T01:19:34.468Z,12.30
2018-03-22T01:22:04.924Z,14.93
2018-03-22T01:24:36.178Z,13.57
2018-03-22T01:27:06.676Z,13.77
2018-03-22T01:29:36.910Z,16.53
2018-03-22T01:32:07.154Z,18.97
2018-03-22T01:34:37.435Z,17.57
2018-03-22T01:37:07.930Z,19.07
2018-03-22T01:39:38.570Z,17.03
2018-03-22T01:42:08.790Z,24.23
2018-03-22T01:44:39.039Z,22.57
2018-03-22T01:47:09.589Z,23.57
2018-03-22T01:49:39.830Z,23.37
2018-03-22T01:52:10.059Z,28.37
2018-03-22T01:54:41.415Z,25.80
2018-03-22T01:57:11.899Z,22.33
2018-03-22T01:59:43.146Z,31.97
2018-03-22T02:02:14.171Z,34.63
2018-03-22T02:04:45.180Z,30.57
2018-03-22T02:07:15.651Z,39.67
2018-03-22T02:09:46.142Z,37.70
2018-03-22T02:12:16.436Z,36.00
2018-03-22T02:14:46.902Z,35.43
2018-03-22T02:17:17.263Z,38.37
2018-03-22T02:19:47.491Z,41.87
2018-03-22T02:22:17.983Z,41.23
2018-03-22T02:24:48.991Z,45.87
2018-03-22T02:27:19.231Z,47.13
2018-03-22T02:29:50.578Z,47.40
2018-03-22T02:32:21.674Z,51.90
2018-03-22T02:34:52.471Z,48.53
2018-03-22T02:37:23.742Z,51.80
2018-03-22T02:39:54.005Z,47.77
2018-03-22T02:42:24.331Z,50.63
2018-03-22T02:44:54.903Z,57.17
2018-03-22T02:47:25.475Z,57.20
2018-03-22T02:49:55.945Z,56.17
2018-03-22T02:52:26.463Z,58.43
2018-03-22T02:54:57.496Z,53.73
2018-03-22T02:57:27.718Z,54.17
2018-03-22T02:59:58.282Z,55.23
2018-03-22T03:02:28.691Z,60.03
2018-03-22T03:04:59.463Z,57.43
2018-03-22T03:07:30.024Z,62.57
2018-03-22T03:10:00.681Z,65.67
2018-03-22T03:12:30.926Z,60.40
2018-03-22T03:15:01.566Z,69.07
2018-03-22T03:17:31.881Z,76.63
2018-03-22T03:20:02.222Z,77.03
2018-03-22T03:22:32.691Z,83.17
2018-03-22T03:25:02.995Z,90.87
2018-03-22T03:27:33.336Z,91.77
2018-03-22T03:30:04.211Z,95.40
2018-03-22T03:32:34.524Z,98.40
2018-03-22T03:35:05.122Z,102.77
2018-03-22T03:37:35.499Z,89.00
2018-03-22T03:40:05.930Z,94.63
2018-03-22T03:42:36.155Z,91.27
2018-03-22T03:45:06.734Z,99.67
2018-03-22T03:47:37.739Z,92.63
2018-03-22T03:50:09.070Z,91.60
2018-03-22T03:52:39.580Z,90.97
2018-03-22T03:55:10.087Z,95.47
2018-03-22T03:57:40.307Z,87.87
2018-03-22T04:00:12.362Z,86.63
2018-03-22T04:02:42.950Z,89.57
2018-03-22T04:05:13.189Z,89.93
2018-03-22T04:07:43.466Z,100.40
2018-03-22T04:10:13.719Z,96.90
2018-03-22T04:12:44.223Z,94.63
2018-03-22T04:15:14.450Z,98.90
2018-03-22T04:17:44.673Z,105.67
2018-03-22T04:20:16.946Z,93.77
2018-03-22T04:22:47.134Z,90.30
2018-03-22T04:25:17.398Z,86.67
2018-03-22T04:27:47.979Z,90.67
2018-03-22T04:30:18.494Z,101.13
2018-03-22T04:32:49.483Z,96.23
2018-03-22T04:35:19.982Z,96.47
2018-03-22T04:37:50.254Z,92.47
2018-03-22T04:40:20.910Z,92.83
2018-03-22T04:42:51.154Z,91.47
2018-03-22T04:45:21.377Z,96.63
2018-03-22T04:47:51.898Z,92.73
2018-03-22T04:50:22.371Z,89.07
2018-03-22T04:52:52.648Z,86.23
2018-03-22T04:55:23.284Z,92.37
2018-03-22T04:57:53.567Z,89.47
2018-03-22T05:00:23.799Z,94.63
2018-03-22T05:02:54.583Z,95.57
2018-03-22T05:05:24.823Z,90.43
2018-03-22T05:07:56.150Z,90.77
2018-03-22T05:10:26.350Z,96.83
2018-03-22T05:12:56.570Z,95.77
2018-03-22T05:15:26.875Z,89.37
2018-03-22T05:17:57.338Z,87.70
2018-03-22T05:20:27.907Z,98.33
2018-03-22T05:22:58.210Z,93.27
2018-03-22T05:25:28.546Z,97.70
2018-03-22T05:27:59.058Z,99.73
2018-03-22T05:30:30.458Z,99.17
2018-03-22T05:33:01.053Z,101.97
2018-03-22T05:35:31.862Z,97.10
2018-03-22T05:38:02.168Z,107.93
2018-03-22T05:40:33.754Z,97.40
2018-03-22T05:43:04.231Z,104.67
2018-03-22T05:45:34.642Z,102.57
2018-03-22T05:48:05.191Z,105.60
2018-03-22T05:50:35.425Z,114.13
2018-03-22T05:53:06.011Z,112.80
2018-03-22T05:55:36.254Z,96.43
2018-03-22T05:58:06.859Z,83.87
2018-03-22T06:00:37.146Z,84.83
2018-03-22T06:03:07.511Z,87.20
2018-03-22T06:05:38.059Z,79.47
2018-03-22T06:08:08.370Z,75.23
2018-03-22T06:10:38.847Z,72.67
2018-03-22T06:13:09.214Z,73.67
2018-03-22T06:15:39.891Z,76.40
2018-03-22T06:18:10.136Z,71.47
2018-03-22T06:20:41.172Z,72.37
2018-03-22T06:23:11.854Z,69.73
2018-03-22T06:25:42.369Z,74.00
2018-03-22T06:28:12.719Z,66.93
2018-03-22T06:30:42.953Z,68.07
2018-03-22T06:33:13.243Z,63.47
2018-03-22T06:35:43.535Z,67.70
2018-03-22T06:38:14.639Z,62.93
2018-03-22T06:40:45.412Z,66.37
2018-03-22T06:43:15.664Z,57.13
2018-03-22T06:45:45.974Z,55.13
2018-03-22T06:48:17.439Z,55.23
2018-03-22T06:50:47.812Z,53.50
2018-03-22T06:53:18.658Z,53.70
2018-03-22T06:55:49.286Z,48.17
2018-03-22T06:58:20.646Z,50.50
2018-03-22T07:00:51.350Z,47.57
2018-03-22T07:03:25.759Z,45.23
2018-03-22T07:05:56.694Z,42.43
2018-03-22T07:08:27.353Z,45.93
2018-03-22T07:13:59.195Z,37.07
2018-03-22T07:16:31.469Z,43.67
2018-03-22T07:19:02.293Z,37.43
2018-03-22T07:21:33.398Z,39.83
2018-03-22T07:24:04.822Z,36.57
2018-03-22T07:26:51.460Z,35.00
2018-03-22T07:29:22.499Z,35.17
2018-03-22T07:31:53.360Z,33.60
2018-03-22T07:34:24.732Z,36.53
2018-03-22T07:37:00.148Z,34.43
2018-03-22T07:39:31.154Z,32.70
2018-03-22T07:42:02.518Z,36.00
2018-03-22T07:44:38.448Z,32.37
2018-03-22T07:47:11.047Z,33.37
2018-03-22T07:49:41.321Z,31.13
2018-03-22T07:52:12.754Z,35.67
2018-03-22T07:54:43.866Z,34.33
2018-03-22T07:57:16.211Z,39.20
2018-03-22T07:59:46.846Z,37.90
2018-03-22T08:02:17.107Z,39.13
2018-03-22T08:04:47.591Z,40.13
2018-03-22T08:07:18.862Z,39.17
2018-03-22T08:09:49.087Z,41.13
2018-03-22T08:12:19.324Z,38.33
2018-03-22T08:14:50.388Z,45.77
2018-03-22T08:17:20.666Z,39.10
2018-03-22T08:19:50.947Z,43.10
2018-03-22T08:22:37.115Z,39.23
2018-03-22T08:25:08.977Z,38.37
2018-03-22T08:27:40.239Z,39.47
2018-03-22T08:30:12.688Z,38.77
2018-03-22T08:32:43.258Z,37.07
2018-03-22T08:35:14.342Z,34.60
2018-03-22T08:37:44.577Z,39.50
2018-03-22T08:40:14.846Z,38.23
2018-03-22T08:42:46.318Z,35.93
2018-03-22T08:45:17.366Z,37.47
2018-03-22T08:47:47.934Z,36.37
2018-03-22T08:50:18.163Z,37.87
2018-03-22T08:52:49.774Z,36.93
2018-03-22T08:55:20.474Z,34.23
2018-03-22T08:57:50.819Z,33.87
2018-03-22T09:00:21.158Z,36.47
2018-03-22T09:02:52.150Z,37.27
2018-03-22T09:05:23.171Z,34.90
2018-03-22T09:07:53.408Z,35.47
2018-03-22T09:10:24.070Z,39.30
2018-03-22T09:12:54.427Z,36.50
2018-03-22T09:15:26.086Z,33.23
2018-03-22T09:17:58.485Z,33.50
2018-03-22T09:20:30.120Z,29.73
2018-03-22T09:23:00.667Z,35.83
2018-03-22T09:25:31.209Z,37.33
2018-03-22T09:28:07.293Z,31.63
2018-03-22T09:30:39.457Z,31.80
2018-03-22T09:33:09.859Z,28.43
2018-03-22T09:35:40.141Z,24.60
2018-03-22T09:38:10.631Z,24.27
2018-03-22T09:40:40.917Z,23.73
2018-03-22T09:43:11.491Z,22.00
2018-03-22T09:45:42.022Z,25.20
2018-03-22T09:48:12.263Z,21.87
2018-03-22T09:50:43.017Z,17.17
2018-03-22T09:53:13.646Z,18.17
2018-03-22T09:55:43.930Z,19.03
2018-03-22T09:58:14.448Z,18.97
2018-03-22T10:00:44.723Z,20.47
2018-03-22T10:03:14.987Z,15.20
2018-03-22T10:05:45.518Z,16.57
2018-03-22T10:08:15.714Z,13.53
2018-03-22T10:10:46.718Z,12.90
2018-03-22T10:13:17.266Z,12.40
2018-03-22T10:15:48.550Z,11.30
2018-03-22T10:18:18.760Z,9.40
2018-03-22T10:20:49.249Z,10.87
2018-03-22T10:23:19.453Z,11.27
2018-03-22T10:25:49.691Z,9.03
2018-03-22T10:28:20.734Z,10.50
2018-03-22T10:30:51.848Z,5.23
2018-03-22T10:33:22.071Z,5.73
2018-03-22T10:35:52.648Z,9.80
2018-03-22T10:38:23.634Z,7.23
2018-03-22T10:40:53.923Z,5.43
2018-03-22T10:43:25.289Z,5.47
2018-03-22T10:45:55.590Z,7.17
2018-03-22T10:48:25.852Z,6.50
2018-03-22T10:50:57.158Z,5.03
2018-03-22T10:53:28.374Z,4.60
2018-03-22T10:55:59.708Z,6.37
2018-03-22T10:58:29.954Z,4.13
2018-03-22T11:01:05.121Z,4.27
2018-03-22T11:03:40.544Z,6.53
2018-03-22T11:06:11.596Z,7.70
2018-03-22T11:08:42.082Z,8.60
2018-03-22T11:11:12.348Z,4.37
2018-03-22T11:13:43.592Z,7.47
2018-03-22T11:16:14.173Z,5.87
2018-03-22T11:18:44.984Z,5.73
2018-03-22T11:21:15.284Z,5.20
2018-03-22T11:23:45.735Z,6.57
2018-03-22T11:26:15.965Z,4.83
2018-03-22T11:28:46.194Z,5.93
2018-03-22T11:31:16.818Z,4.90
2018-03-22T11:33:47.014Z,5.97
2018-03-22T11:36:17.326Z,4.27
2018-03-22T11:38:47.823Z,4.17
2018-03-22T11:41:18.856Z,4.67
2018-03-22T11:43:49.338Z,5.27
2018-03-22T11:46:19.842Z,4.37
2018-03-22T11:48:50.843Z,3.37
2018-03-22T11:51:21.138Z,5.57
2018-03-22T11:53:51.779Z,4.47
2018-03-22T11:56:21.998Z,5.20
2018-03-22T11:58:52.246Z,5.40
2018-03-22T12:01:22.906Z,6.67
2018-03-22T12:03:53.238Z,6.13
2018-03-22T12:06:23.566Z,6.07
2018-03-22T12:08:54.087Z,5.70
2018-03-22T12:11:24.337Z,4.00
2018-03-22T12:13:54.826Z,4.20
2018-03-22T12:16:25.335Z,5.47
2018-03-22T12:18:56.439Z,4.90
2018-03-22T12:21:27.649Z,4.27
2018-03-22T12:23:58.348Z,4.53
2018-03-22T12:26:29.614Z,5.87
2018-03-22T12:28:59.914Z,3.77
2018-03-22T12:31:30.891Z,3.70
2018-03-22T12:34:01.378Z,3.70
2018-03-22T12:36:31.578Z,3.20
2018-03-22T12:39:03.430Z,4.47
2018-03-22T12:41:33.987Z,6.00
2018-03-22T12:44:04.595Z,6.90
2018-03-22T12:46:34.938Z,5.60
2018-03-22T12:49:05.548Z,6.03
2018-03-22T12:51:35.895Z,7.83
2018-03-22T12:54:06.162Z,7.43
2018-03-22T12:56:36.934Z,6.23
2018-03-22T12:59:07.163Z,6.40
2018-03-22T13:01:37.388Z,4.70
2018-03-22T13:04:08.006Z,4.60
2018-03-22T13:06:38.298Z,5.73
2018-03-22T13:09:08.535Z,6.97
2018-03-22T13:11:39.046Z,4.83
2018-03-22T13:14:09.285Z,4.53
2018-03-22T13:16:39.542Z,4.97
2018-03-22T13:19:10.055Z,5.50
2018-03-22T13:21:40.258Z,10.53
2018-03-22T13:24:11.365Z,20.90
2018-03-22T13:26:43.050Z,15.33
2018-03-22T13:29:13.410Z,9.43
2018-03-22T13:31:43.954Z,7.20
2018-03-22T13:34:14.246Z,8.37
2018-03-22T13:36:44.751Z,7.20
2018-03-22T13:39:15.024Z,6.33
2018-03-22T13:41:46.010Z,6.97
2018-03-22T13:44:17.569Z,7.00
2018-03-22T13:46:47.814Z,5.47
2018-03-22T13:49:19.001Z,7.17
2018-03-22T13:51:49.474Z,6.83
2018-03-22T13:54:19.738Z,8.10
2018-03-22T13:56:50.278Z,6.20
2018-03-22T13:59:20.796Z,5.43
2018-03-22T14:01:51.115Z,6.57
2018-03-22T14:04:21.587Z,4.83
2018-03-22T14:06:52.197Z,8.50
2018-03-22T14:09:22.452Z,9.00
2018-03-22T14:11:52.682Z,6.53
2018-03-22T14:14:24.142Z,7.20
2018-03-22T14:16:54.658Z,6.03
2018-03-22T14:19:24.834Z,4.47
2018-03-22T14:21:55.464Z,5.07
2018-03-22T14:24:25.822Z,6.87
2018-03-22T14:26:56.014Z,6.67
2018-03-22T14:29:26.509Z,6.63
2018-03-22T14:31:57.580Z,8.00
2018-03-22T14:34:27.799Z,7.80
2018-03-22T14:36:58.523Z,6.63
2018-03-22T14:39:28.839Z,6.33
2018-03-22T14:41:59.174Z,6.70
2018-03-22T14:44:29.716Z,5.17
2018-03-22T14:47:00.250Z,8.07
2018-03-22T14:49:31.156Z,4.63
2018-03-22T14:52:01.679Z,4.30
2018-03-22T14:54:32.014Z,5.00
2018-03-22T14:57:02.235Z,5.60
2018-03-22T14:59:32.826Z,5.37
2018-03-22T15:02:03.898Z,7.67
2018-03-22T15:04:35.208Z,8.23
2018-03-22T15:07:05.689Z,7.30
2018-03-22T15:09:36.010Z,7.40
2018-03-22T15:12:06.583Z,8.17
2018-03-22T15:14:37.402Z,8.43
2018-03-22T15:17:07.897Z,8.50
2018-03-22T15:19:38.113Z,11.33
2018-03-22T15:22:08.775Z,12.73
2018-03-22T15:24:39.083Z,12.43
2018-03-22T15:27:09.286Z,11.17
2018-03-22T15:29:39.774Z,9.93
2018-03-22T15:32:09.971Z,11.53
2018-03-22T15:34:40.419Z,11.70
2018-03-22T15:37:10.900Z,12.17
2018-03-22T15:39:41.192Z,12.77
2018-03-22T15:42:11.456Z,10.67
2018-03-22T15:44:42.105Z,10.90
2018-03-22T15:47:12.611Z,10.77
2018-03-22T15:49:42.834Z,11.00
2018-03-22T15:52:14.012Z,10.73
2018-03-22T15:54:45.186Z,9.87
2018-03-22T15:57:15.530Z,10.10
2018-03-22T15:59:46.318Z,12.83
2018-03-22T16:02:17.578Z,12.50
2018-03-22T16:04:49.090Z,11.00
2018-03-22T16:07:19.386Z,9.47
2018-03-22T16:09:49.661Z,10.50
2018-03-22T16:12:20.894Z,10.83
2018-03-22T16:14:51.887Z,11.00
2018-03-22T16:17:22.393Z,13.10
2018-03-22T16:19:52.919Z,11.90
2018-03-22T16:22:23.790Z,13.73
2018-03-22T16:24:54.136Z,12.97
2018-03-22T16:27:25.438Z,14.60
2018-03-22T16:29:55.794Z,15.60
2018-03-22T16:32:28.074Z,14.70
2018-03-22T16:34:58.594Z,15.73
2018-03-22T16:37:31.601Z,15.13
2018-03-22T16:40:02.985Z,15.23
2018-03-22T16:42:33.359Z,17.57
2018-03-22T16:45:06.695Z,16.60
2018-03-22T16:47:37.841Z,16.27
2018-03-22T16:50:09.841Z,17.10
2018-03-22T16:52:40.655Z,15.17
2018-03-22T16:55:27.272Z,17.50
2018-03-22T16:59:13.022Z,14.40
2018-03-22T17:01:45.318Z,15.77
2018-03-22T17:04:17.408Z,18.17
2018-03-22T17:06:48.659Z,18.20
2018-03-22T17:09:26.751Z,16.07
2018-03-22T17:11:57.606Z,16.57
2018-03-22T17:14:29.410Z,16.53
2018-03-22T17:16:59.635Z,18.87
2018-03-22T17:19:32.119Z,15.97
2018-03-22T17:22:04.115Z,19.57
2018-03-22T17:24:34.438Z,19.60
2018-03-22T17:27:04.878Z,17.80
2018-03-22T17:29:36.310Z,17.93
2018-03-22T17:32:06.542Z,19.57
2018-03-22T17:34:36.990Z,19.70
2018-03-22T17:37:08.027Z,15.53
2018-03-22T17:39:39.366Z,19.33
2018-03-22T17:42:09.091Z,21.30
2018-03-22T17:44:40.062Z,23.80
2018-03-22T17:47:10.637Z,19.57
2018-03-22T17:49:44.705Z,23.13
2018-03-22T17:52:16.853Z,21.50
2018-03-22T17:54:47.540Z,21.73
2018-03-22T17:57:20.258Z,21.47
2018-03-22T17:59:52.025Z,22.53
2018-03-22T18:02:22.389Z,20.80
2018-03-22T18:04:53.452Z,21.50
2018-03-22T18:07:24.010Z,18.57
2018-03-22T18:09:54.359Z,22.23
2018-03-22T18:12:25.115Z,20.23
2018-03-22T18:14:56.293Z,20.90
2018-03-22T18:17:26.782Z,20.90
2018-03-22T18:20:22.420Z,19.97
2018-03-22T18:22:54.011Z,19.33
2018-03-22T18:25:24.382Z,20.13
2018-03-22T18:27:55.305Z,15.87
2018-03-22T18:30:29.875Z,16.83
2018-03-22T18:33:22.226Z,14.47
2018-03-22T18:35:53.052Z,15.33
2018-03-22T18:38:48.202Z,14.87
2018-03-22T18:41:18.819Z,12.60
2018-03-22T18:43:50.006Z,14.60
2018-03-22T18:46:20.859Z,17.23
2018-03-22T18:48:53.162Z,18.03
2018-03-22T18:51:23.517Z,16.57
2018-03-22T18:53:53.788Z,16.10
2018-03-22T18:56:24.535Z,13.30
2018-03-22T18:58:54.961Z,14.40
2018-03-22T19:01:25.674Z,15.77
2018-03-22T19:03:57.569Z,13.97
2018-03-22T19:06:28.098Z,12.57
2018-03-22T19:09:04.779Z,13.43
2018-03-22T19:11:39.237Z,12.80
2018-03-22T19:14:14.889Z,12.00
2018-03-22T19:16:46.215Z,11.03
2018-03-22T19:19:17.676Z,12.57
2018-03-22T19:21:49.696Z,12.10
2018-03-22T19:24:20.202Z,13.40
2018-03-22T19:26:50.519Z,14.43
2018-03-22T19:29:25.052Z,13.53
2018-03-22T19:31:55.307Z,12.83
2018-03-22T19:34:25.822Z,15.93
2018-03-22T19:36:57.966Z,16.77
2018-03-22T19:39:29.828Z,15.67
2018-03-22T19:42:00.597Z,13.00
2018-03-22T19:44:31.744Z,13.93
2018-03-22T19:47:02.270Z,13.80
2018-03-22T19:49:32.998Z,15.27
2018-03-22T19:52:03.516Z,15.73
2018-03-22T19:54:34.386Z,16.73
2018-03-22T19:57:04.917Z,17.70
2018-03-22T19:59:36.535Z,15.17
2018-03-22T20:02:06.770Z,15.30
2018-03-22T20:04:37.474Z,14.37
2018-03-22T20:07:07.671Z,13.77
2018-03-22T20:09:37.971Z,12.10
2018-03-22T20:12:08.803Z,14.47
2018-03-22T20:14:41.121Z,11.73
2018-03-22T20:17:11.395Z,12.90
2018-03-22T20:19:43.389Z,10.53
2018-03-22T20:22:13.758Z,12.73
2018-03-22T20:24:44.660Z,12.80
2018-03-22T20:27:14.938Z,11.87
2018-03-22T20:29:45.198Z,9.53
2018-03-22T20:32:15.790Z,12.50
2018-03-22T20:34:46.824Z,10.93
2018-03-22T20:37:17.863Z,11.07
2018-03-22T20:39:49.827Z,10.20
2018-03-22T20:42:20.142Z,11.17
2018-03-22T20:44:51.403Z,11.73
2018-03-22T20:47:22.776Z,12.17
2018-03-22T20:49:53.251Z,12.17
2018-03-22T20:52:23.629Z,9.57
2018-03-22T20:54:54.108Z,11.23
2018-03-22T20:57:24.342Z,10.50
2018-03-22T20:59:55.371Z,10.07
2018-03-22T21:02:26.041Z,11.07
2018-03-22T21:04:56.263Z,12.73
2018-03-22T21:07:26.508Z,11.73
2018-03-22T21:09:57.026Z,8.93
2018-03-22T21:12:27.343Z,12.10
2018-03-22T21:14:58.011Z,10.33
2018-03-22T21:17:28.606Z,9.67
2018-03-22T21:19:58.922Z,8.63
2018-03-22T21:22:29.546Z,8.73
2018-03-22T21:24:59.789Z,9.37
2018-03-22T21:27:30.269Z,8.37
2018-03-22T21:30:01.585Z,9.67
2018-03-22T21:32:31.834Z,10.27
2018-03-22T21:35:03.238Z,10.83
2018-03-22T21:37:33.987Z,12.17
2018-03-22T21:40:04.958Z,10.10
2018-03-22T21:42:35.301Z,10.40
2018-03-22T21:45:05.925Z,11.03
2018-03-22T21:47:36.128Z,10.93
2018-03-22T21:50:07.174Z,10.17
2018-03-22T21:52:46.636Z,10.43
2018-03-22T21:55:16.902Z,12.07
2018-03-22T21:57:47.586Z,10.70
2018-03-22T22:00:17.849Z,11.13
2018-03-22T22:02:48.122Z,13.03
2018-03-22T22:05:19.668Z,12.23
2018-03-22T22:07:50.757Z,11.30
2018-03-22T22:10:21.015Z,9.03
2018-03-22T22:12:51.608Z,9.03
2018-03-22T22:15:21.948Z,11.20
2018-03-22T22:17:52.230Z,10.90
2018-03-22T22:20:22.762Z,7.87
2018-03-22T22:22:52.954Z,8.80
2018-03-22T22:25:24.029Z,10.70
2018-03-22T22:27:55.427Z,11.57
2018-03-22T22:30:26.519Z,11.83
2018-03-22T22:32:57.912Z,10.97
2018-03-22T22:35:28.724Z,11.37
2018-03-22T22:37:59.072Z,9.30
2018-03-22T22:40:29.770Z,8.47
2018-03-22T22:43:00.010Z,9.87
2018-03-22T22:45:31.010Z,9.50
2018-03-22T22:48:01.540Z,9.47
2018-03-22T22:50:31.831Z,10.47
2018-03-22T22:53:02.100Z,9.30
2018-03-22T22:55:32.687Z,7.33
2018-03-22T22:58:02.950Z,7.40
2018-03-22T23:00:33.412Z,6.13
2018-03-22T23:03:03.951Z,7.60
2018-03-22T23:05:34.280Z,6.90
2018-03-22T23:08:05.252Z,8.60
2018-03-22T23:10:35.526Z,10.63
2018-03-22T23:13:06.073Z,10.93
2018-03-22T23:15:37.631Z,11.37
2018-03-22T23:18:08.628Z,14.53
2018-03-22T23:20:39.665Z,10.23
2018-03-22T23:23:10.143Z,12.07
2018-03-22T23:25:40.856Z,10.67
2018-03-22T23:28:13.076Z,11.43
2018-03-22T23:30:44.189Z,9.40
2018-03-22T23:33:15.415Z,7.43
2018-03-22T23:35:46.624Z,6.67
2018-03-22T23:38:17.736Z,7.37
2018-03-22T23:40:48.563Z,5.60
2018-03-22T23:43:19.430Z,4.97
2018-03-22T23:45:49.754Z,4.87
2018-03-22T23:48:20.261Z,4.30
2018-03-22T23:50:50.643Z,5.33
2018-03-22T23:53:22.646Z,3.70
2018-03-22T23:55:54.083Z,2.93
2018-03-22T23:58:25.317Z,3.30
